createdAt,value
2023-04-02T00:00:12.290Z,76.00
2023-04-02T00:03:09.215Z,72.90
2023-04-02T00:05:52.747Z,66.40
2023-04-02T00:08:26.666Z,71.00
2023-04-02T00:11:02.229Z,68.50
2023-04-02T00:13:33.187Z,71.30
2023-04-02T00:16:03.670Z,75.00
2023-04-02T00:18:34.495Z,76.10
2023-04-02T00:21:29.368Z,79.90
2023-04-02T00:24:01.480Z,72.80
2023-04-02T00:26:43.266Z,75.00
2023-04-02T00:29:13.796Z,80.10
2023-04-02T00:31:45.845Z,69.10
2023-04-02T00:34:37.127Z,70.60
2023-04-02T00:37:06.161Z,87.60
2023-04-02T00:39:43.448Z,87.60
2023-04-02T00:42:13.483Z,82.60
2023-04-02T00:44:45.630Z,71.50
2023-04-02T00:47:33.921Z,83.40
2023-04-02T00:50:19.024Z,79.90
2023-04-02T00:52:51.214Z,87.50
2023-04-02T00:55:27.796Z,78.40
2023-04-02T00:58:00.568Z,77.60
2023-04-02T01:00:36.493Z,81.40
2023-04-02T01:03:17.290Z,82.10
2023-04-02T01:05:50.599Z,84.10
2023-04-02T01:08:31.857Z,78.00
2023-04-02T01:11:21.783Z,85.50
2023-04-02T01:14:05.519Z,80.30
2023-04-02T01:16:54.345Z,79.40
2023-04-02T01:20:01.125Z,80.00
2023-04-02T01:22:48.348Z,75.10
2023-04-02T01:25:24.533Z,75.50
2023-04-02T01:28:05.287Z,74.50
2023-04-02T01:30:36.976Z,81.20
2023-04-02T01:33:07.347Z,83.00
2023-04-02T01:35:43.559Z,79.30
2023-04-02T01:38:19.439Z,78.20
2023-04-02T01:41:02.383Z,75.40
2023-04-02T01:43:49.820Z,82.00
2023-04-02T01:46:32.341Z,83.00
2023-04-02T01:49:04.993Z,83.00
2023-04-02T01:51:35.347Z,76.20
2023-04-02T01:54:08.105Z,78.80
2023-04-02T01:56:37.033Z,77.20
2023-04-02T01:59:07.122Z,80.50
2023-04-02T02:01:48.839Z,76.90
2023-04-02T02:04:19.758Z,94.80
2023-04-02T02:06:48.526Z,101.30
2023-04-02T02:09:24.042Z,101.30
2023-04-02T02:11:52.777Z,88.90
2023-04-02T02:14:27.421Z,91.70
2023-04-02T02:17:00.408Z,85.70
2023-04-02T02:19:55.251Z,102.10
2023-04-02T02:22:39.367Z,101.40
2023-04-02T02:25:17.445Z,87.30
2023-04-02T02:27:50.009Z,84.90
2023-04-02T02:30:31.709Z,72.00
2023-04-02T02:33:14.631Z,77.40
2023-04-02T02:35:52.531Z,70.00
2023-04-02T02:38:35.564Z,74.80
2023-04-02T02:41:18.157Z,73.00
2023-04-02T02:44:02.341Z,87.30
2023-04-02T02:46:34.201Z,96.70
2023-04-02T02:49:05.206Z,81.30
2023-04-02T02:51:46.512Z,72.00
2023-04-02T02:54:19.994Z,71.20
2023-04-02T02:56:57.150Z,69.30
2023-04-02T02:59:28.825Z,77.80
2023-04-02T03:01:58.430Z,68.70
2023-04-02T03:04:30.811Z,75.60
2023-04-02T03:07:00.031Z,71.70
2023-04-02T03:09:39.635Z,76.50
2023-04-02T03:12:44.324Z,74.50
2023-04-02T03:15:39.029Z,87.30
2023-04-02T03:18:16.658Z,71.30
2023-04-02T03:20:57.544Z,65.90
2023-04-02T03:23:36.060Z,65.40
2023-04-02T03:26:32.907Z,67.00
2023-04-02T03:29:29.947Z,69.10
2023-04-02T03:32:17.371Z,63.90
2023-04-02T03:35:02.058Z,65.80
2023-04-02T03:37:42.698Z,66.80
2023-04-02T03:40:21.252Z,67.00
2023-04-02T03:42:56.968Z,68.60
2023-04-02T03:45:32.779Z,67.00
2023-04-02T03:48:07.449Z,65.10
2023-04-02T03:50:41.151Z,61.00
2023-04-02T03:53:09.956Z,59.80
2023-04-02T03:55:42.924Z,57.60
2023-04-02T03:58:17.452Z,62.10
2023-04-02T04:01:01.990Z,59.00
2023-04-02T04:03:39.869Z,66.00
2023-04-02T04:06:21.500Z,60.80
2023-04-02T04:08:55.501Z,61.30
2023-04-02T04:11:31.173Z,61.00
2023-04-02T04:14:10.595Z,58.40
2023-04-02T04:16:47.695Z,57.60
2023-04-02T04:19:40.111Z,60.90
2023-04-02T04:22:30.694Z,61.20
2023-04-02T04:25:18.342Z,58.40
2023-04-02T04:28:08.059Z,62.70
2023-04-02T04:30:52.572Z,63.40
2023-04-02T04:33:34.779Z,60.10
2023-04-02T04:36:14.965Z,54.60
2023-04-02T04:38:55.527Z,62.40
2023-04-02T04:41:30.235Z,56.90
2023-04-02T04:44:10.793Z,53.20
2023-04-02T04:46:48.160Z,52.10
2023-04-02T04:49:36.229Z,54.40
2023-04-02T04:52:22.439Z,58.20
2023-04-02T04:54:53.457Z,56.70
2023-04-02T04:57:42.427Z,52.70
2023-04-02T05:00:23.199Z,57.50
2023-04-02T05:03:14.348Z,51.20
2023-04-02T05:05:45.136Z,43.10
2023-04-02T05:08:27.346Z,46.40
2023-04-02T05:11:01.475Z,49.30
2023-04-02T05:13:36.481Z,43.80
2023-04-02T05:16:44.836Z,39.20
2023-04-02T05:19:17.071Z,49.30
2023-04-02T05:21:57.573Z,44.70
2023-04-02T05:24:54.698Z,48.80
2023-04-02T05:30:13.460Z,51.30
2023-04-02T05:32:48.960Z,47.80
2023-04-02T05:35:21.341Z,47.10
2023-04-02T05:37:50.782Z,45.40
2023-04-02T05:40:31.341Z,50.70
2023-04-02T05:43:08.254Z,52.80
2023-04-02T05:45:44.526Z,54.10
2023-04-02T05:48:35.601Z,59.00
2023-04-02T05:51:08.781Z,56.40
2023-04-02T05:53:46.083Z,58.90
2023-04-02T05:56:26.656Z,59.10
2023-04-02T05:59:03.416Z,58.50
2023-04-02T06:01:49.938Z,60.50
2023-04-02T06:04:45.122Z,73.90
2023-04-02T06:07:29.829Z,59.90
2023-04-02T06:10:10.426Z,59.20
2023-04-02T06:12:55.865Z,58.90
2023-04-02T06:15:25.236Z,76.70
2023-04-02T06:18:08.666Z,86.60
2023-04-02T06:20:39.307Z,85.40
2023-04-02T06:23:14.286Z,93.20
2023-04-02T06:26:26.547Z,101.10
2023-04-02T06:29:14.486Z,92.20
2023-04-02T06:31:49.723Z,85.20
2023-04-02T06:34:22.627Z,95.10
2023-04-02T06:37:03.057Z,87.80
2023-04-02T06:39:32.807Z,93.70
2023-04-02T06:42:11.427Z,100.20
2023-04-02T06:44:58.605Z,91.60
2023-04-02T06:47:54.157Z,94.90
2023-04-02T06:50:53.683Z,96.30
2023-04-02T06:53:28.217Z,103.50
2023-04-02T06:56:03.213Z,92.10
2023-04-02T06:58:33.285Z,94.40
2023-04-02T07:01:02.319Z,94.40
2023-04-02T07:03:44.198Z,99.30
2023-04-02T07:06:45.321Z,103.40
2023-04-02T07:09:16.486Z,106.00
2023-04-02T07:11:49.062Z,104.60
2023-04-02T07:14:18.872Z,107.40
2023-04-02T07:16:48.180Z,102.60
2023-04-02T07:19:23.031Z,109.00
2023-04-02T07:21:55.590Z,108.00
2023-04-02T07:24:26.006Z,104.90
2023-04-02T07:26:54.908Z,107.30
2023-04-02T07:29:23.687Z,115.00
2023-04-02T07:31:54.221Z,108.00
2023-04-02T07:34:22.694Z,113.50
2023-04-02T07:36:51.907Z,113.40
2023-04-02T07:39:20.433Z,114.80
2023-04-02T07:41:57.864Z,121.30
2023-04-02T07:44:27.773Z,116.30
2023-04-02T07:46:56.511Z,131.00
2023-04-02T07:49:25.495Z,136.90
2023-04-02T07:51:54.145Z,139.00
2023-04-02T07:54:22.831Z,141.50
2023-04-02T07:56:52.067Z,138.50
2023-04-02T07:59:20.824Z,148.10
2023-04-02T08:01:49.211Z,138.40
2023-04-02T08:04:20.797Z,131.90
2023-04-02T08:06:50.863Z,139.30
2023-04-02T08:09:19.764Z,134.60
2023-04-02T08:11:48.665Z,119.80
2023-04-02T08:14:17.154Z,129.50
2023-04-02T08:16:49.155Z,140.40
2023-04-02T08:19:18.348Z,141.00
2023-04-02T08:21:51.027Z,135.80
2023-04-02T08:24:21.632Z,140.00
2023-04-02T08:26:54.692Z,128.40
2023-04-02T08:29:24.233Z,149.90
2023-04-02T08:31:52.888Z,137.70
2023-04-02T08:34:21.777Z,135.30
2023-04-02T08:36:56.607Z,147.30
2023-04-02T08:39:29.484Z,144.00
2023-04-02T08:42:22.140Z,139.70
2023-04-02T08:45:21.296Z,134.10
2023-04-02T08:47:56.716Z,135.20
2023-04-02T08:50:33.125Z,135.00
2023-04-02T08:53:05.359Z,133.60
2023-04-02T08:55:43.276Z,135.00
2023-04-02T08:58:29.716Z,146.10
2023-04-02T09:01:02.574Z,127.70
2023-04-02T09:03:37.540Z,127.40
2023-04-02T09:06:14.279Z,136.90
2023-04-02T09:08:47.519Z,132.70
2023-04-02T09:11:42.655Z,132.90
2023-04-02T09:14:19.796Z,138.30
2023-04-02T09:16:53.591Z,139.30
2023-04-02T09:19:31.700Z,130.90
2023-04-02T09:22:02.700Z,129.70
2023-04-02T09:24:33.606Z,129.30
2023-04-02T09:27:03.012Z,121.80
2023-04-02T09:29:45.397Z,127.00
2023-04-02T09:32:35.512Z,123.90
2023-04-02T09:35:24.766Z,121.20
2023-04-02T09:38:10.653Z,111.60
2023-04-02T09:41:07.707Z,112.30
2023-04-02T09:43:38.523Z,108.00
2023-04-02T09:46:19.046Z,108.50
2023-04-02T09:48:55.275Z,107.40
2023-04-02T09:51:26.595Z,103.70
2023-04-02T09:54:04.539Z,96.90
2023-04-02T09:56:38.980Z,95.80
2023-04-02T09:59:18.669Z,100.60
2023-04-02T10:01:58.754Z,92.30
2023-04-02T10:04:45.453Z,96.00
2023-04-02T10:10:35.663Z,113.60
2023-04-02T10:13:22.316Z,103.60
2023-04-02T10:16:05.279Z,103.20
2023-04-02T10:19:00.241Z,97.20
2023-04-02T10:21:40.310Z,111.30
2023-04-02T10:24:19.034Z,95.10
2023-04-02T10:26:58.893Z,87.20
2023-04-02T10:29:44.156Z,101.80
2023-04-02T10:32:19.088Z,104.80
2023-04-02T10:35:23.003Z,97.90
2023-04-02T10:38:02.348Z,90.10
2023-04-02T10:40:59.795Z,91.70
2023-04-02T10:43:31.159Z,89.70
2023-04-02T10:46:13.880Z,85.80
2023-04-02T10:49:10.739Z,77.90
2023-04-02T10:51:47.100Z,81.80
2023-04-02T10:54:41.765Z,81.70
2023-04-02T10:57:10.927Z,83.20
2023-04-02T10:59:45.087Z,88.70
2023-04-02T11:02:51.655Z,92.80
2023-04-02T11:05:25.976Z,89.70
2023-04-02T11:08:04.613Z,92.00
2023-04-02T11:10:40.544Z,79.10
2023-04-02T11:13:15.279Z,84.70
2023-04-02T11:15:44.995Z,83.60
2023-04-02T11:18:29.559Z,77.80
2023-04-02T11:21:01.071Z,87.90
2023-04-02T11:23:36.427Z,94.30
2023-04-02T11:26:37.576Z,87.00
2023-04-02T11:29:28.602Z,82.00
2023-04-02T11:32:21.529Z,88.30
2023-04-02T11:34:59.894Z,101.90
2023-04-02T11:37:45.491Z,101.50
2023-04-02T11:40:14.436Z,91.40
2023-04-02T11:42:53.474Z,89.40
2023-04-02T11:45:29.043Z,95.40
2023-04-02T11:48:08.534Z,100.90
2023-04-02T11:50:38.676Z,91.60
2023-04-02T11:53:13.904Z,88.40
2023-04-02T11:55:45.916Z,77.40
2023-04-02T11:58:34.338Z,86.10
2023-04-02T12:01:16.388Z,84.20
2023-04-02T12:03:47.989Z,82.00
2023-04-02T12:06:28.426Z,83.10
2023-04-02T12:09:25.298Z,86.20
2023-04-02T12:12:26.324Z,83.60
2023-04-02T12:14:57.903Z,83.30
2023-04-02T12:17:38.268Z,81.80
2023-04-02T12:20:09.156Z,69.00
2023-04-02T12:22:49.628Z,66.10
2023-04-02T12:25:40.516Z,56.50
2023-04-02T12:28:20.007Z,73.40
2023-04-02T12:30:51.505Z,63.10
2023-04-02T12:33:20.387Z,57.90
2023-04-02T12:36:01.899Z,62.10
2023-04-02T12:38:34.275Z,67.30
2023-04-02T12:41:21.872Z,60.80
2023-04-02T12:44:02.022Z,56.40
2023-04-02T12:46:33.320Z,67.20
2023-04-02T12:49:23.824Z,66.20
2023-04-02T12:51:53.423Z,70.40
2023-04-02T12:54:22.920Z,62.40
2023-04-02T12:56:55.176Z,58.30
2023-04-02T12:59:29.711Z,56.00
2023-04-02T13:02:02.770Z,57.20
2023-04-02T13:04:46.639Z,55.90
2023-04-02T13:07:18.812Z,55.30
2023-04-02T13:09:53.696Z,55.70
2023-04-02T13:12:27.139Z,54.90
2023-04-02T13:14:57.867Z,53.20
2023-04-02T13:17:48.939Z,54.80
2023-04-02T13:20:40.070Z,49.60
2023-04-02T13:23:27.348Z,56.20
2023-04-02T13:26:16.576Z,51.30
2023-04-02T13:29:01.587Z,47.20
2023-04-02T13:31:32.873Z,47.10
2023-04-02T13:34:01.992Z,50.20
2023-04-02T13:36:32.359Z,48.70
2023-04-02T13:39:01.442Z,47.30
2023-04-02T13:41:34.101Z,46.60
2023-04-02T13:44:03.703Z,50.50
2023-04-02T13:46:35.044Z,47.10
2023-04-02T13:49:03.531Z,51.10
2023-04-02T13:51:59.083Z,63.80
2023-04-02T13:54:43.918Z,56.50
2023-04-02T13:57:12.757Z,59.40
2023-04-02T13:59:42.399Z,62.10
2023-04-02T14:02:20.843Z,63.60
2023-04-02T14:04:58.105Z,48.60
2023-04-02T14:07:37.450Z,49.00
2023-04-02T14:10:32.444Z,48.20
2023-04-02T14:13:07.181Z,54.00
2023-04-02T14:16:28.132Z,48.40
2023-04-02T14:19:04.344Z,54.00
2023-04-02T14:21:35.899Z,48.70
2023-04-02T14:24:18.333Z,58.40
2023-04-02T14:26:58.257Z,57.80
2023-04-02T14:29:44.860Z,62.40
2023-04-02T14:32:55.169Z,54.00
2023-04-02T14:35:31.827Z,57.40
2023-04-02T14:38:09.086Z,64.30
2023-04-02T14:40:50.375Z,58.80
2023-04-02T14:43:38.709Z,55.50
2023-04-02T14:46:10.620Z,62.50
2023-04-02T14:48:52.891Z,51.40
2023-04-02T14:51:37.522Z,58.50
2023-04-02T14:54:40.291Z,54.40
2023-04-02T14:57:21.808Z,52.20
2023-04-02T15:00:13.652Z,54.50
2023-04-02T15:03:04.616Z,53.10
2023-04-02T15:05:46.658Z,56.50
2023-04-02T15:08:15.126Z,70.20
2023-04-02T15:10:52.730Z,64.80
2023-04-02T15:13:27.435Z,60.00
2023-04-02T15:16:21.658Z,56.50
2023-04-02T15:18:53.914Z,53.00
2023-04-02T15:21:49.786Z,53.00
2023-04-02T15:25:03.914Z,61.30
2023-04-02T15:27:39.821Z,55.50
2023-04-02T15:30:22.296Z,47.90
2023-04-02T15:32:52.726Z,44.70
2023-04-02T15:35:39.974Z,47.70
2023-04-02T15:38:24.542Z,46.20
2023-04-02T15:41:14.748Z,52.90
2023-04-02T15:44:10.269Z,48.80
2023-04-02T15:46:57.597Z,49.20
2023-04-02T15:49:54.316Z,50.20
2023-04-02T15:52:40.516Z,51.40
2023-04-02T15:55:21.170Z,45.60
2023-04-02T15:58:17.440Z,50.70
2023-04-02T16:00:49.396Z,55.30
2023-04-02T16:03:21.170Z,48.70
2023-04-02T16:06:17.298Z,51.20
2023-04-02T16:09:18.411Z,45.30
2023-04-02T16:11:46.889Z,43.70
2023-04-02T16:14:15.792Z,44.50
2023-04-02T16:16:48.311Z,46.90
2023-04-02T16:19:41.815Z,57.40
2023-04-02T16:22:27.851Z,61.90
2023-04-02T16:25:14.313Z,44.90
2023-04-02T16:30:26.949Z,41.00
2023-04-02T16:32:58.363Z,40.00
2023-04-02T16:35:43.767Z,51.50
2023-04-02T16:38:20.952Z,40.40
2023-04-02T16:41:09.113Z,40.90
2023-04-02T16:44:10.472Z,42.40
2023-04-02T16:47:03.189Z,47.10
2023-04-02T16:49:47.960Z,51.10
2023-04-02T16:52:43.545Z,56.60
2023-04-02T16:55:39.302Z,56.40
2023-04-02T16:58:33.893Z,66.80
2023-04-02T17:01:08.931Z,63.10
2023-04-02T17:03:37.391Z,67.30
2023-04-02T17:06:15.829Z,58.80
2023-04-02T17:08:50.952Z,65.10
2023-04-02T17:11:32.900Z,68.80
2023-04-02T17:14:13.032Z,72.30
2023-04-02T17:16:50.825Z,68.50
2023-04-02T17:19:21.074Z,73.10
2023-04-02T17:21:53.533Z,61.30
2023-04-02T17:24:44.821Z,57.90
2023-04-02T17:27:37.199Z,69.70
2023-04-02T17:30:31.776Z,72.50
2023-04-02T17:33:00.506Z,72.40
2023-04-02T17:36:00.506Z,63.80
2023-04-02T17:38:54.254Z,68.70
2023-04-02T17:41:49.072Z,70.50
2023-04-02T17:44:33.802Z,74.80
2023-04-02T17:47:33.764Z,73.30
2023-04-02T17:50:17.760Z,65.20
2023-04-02T17:52:57.608Z,75.60
2023-04-02T17:55:58.141Z,73.30
2023-04-02T17:58:41.949Z,84.30
2023-04-02T18:01:20.262Z,67.50
2023-04-02T18:04:10.984Z,71.30
2023-04-02T18:06:44.608Z,79.60
2023-04-02T18:09:13.175Z,84.00
2023-04-02T18:12:08.973Z,89.10
2023-04-02T18:15:04.405Z,88.30
2023-04-02T18:18:03.848Z,85.70
2023-04-02T18:20:36.923Z,91.00
2023-04-02T18:23:12.655Z,84.00
2023-04-02T20:53:41.206Z,49.30
2023-04-02T20:56:12.991Z,48.30
2023-04-02T20:58:42.899Z,49.60
2023-04-02T21:01:20.003Z,44.10
2023-04-02T21:03:49.987Z,48.80
2023-04-02T21:06:21.569Z,41.20
2023-04-02T21:08:51.068Z,44.00
2023-04-02T21:11:20.238Z,39.60
2023-04-02T21:13:49.957Z,40.90
2023-04-02T21:16:30.044Z,40.50
2023-04-02T21:19:02.467Z,39.40
2023-04-02T21:21:31.386Z,40.20
2023-04-02T21:24:02.241Z,39.20
2023-04-02T21:26:34.803Z,40.70
2023-04-02T21:32:41.614Z,38.00
2023-04-02T21:35:10.159Z,34.30
2023-04-02T21:37:38.749Z,33.30
2023-04-02T21:40:08.647Z,34.70
2023-04-02T21:42:37.241Z,29.20
2023-04-02T21:45:06.731Z,34.70
2023-04-02T21:47:35.252Z,37.50
2023-04-02T21:50:04.680Z,42.20
2023-04-02T21:52:33.203Z,38.00
2023-04-02T21:55:01.888Z,32.00
2023-04-02T21:57:32.432Z,35.90
2023-04-02T22:00:01.423Z,32.10
2023-04-02T22:02:31.580Z,29.50
2023-04-02T22:05:00.181Z,28.90
2023-04-02T22:07:29.037Z,32.60
2023-04-02T22:09:59.220Z,30.20
2023-04-02T22:12:28.033Z,32.80
2023-04-02T22:14:56.732Z,35.60
2023-04-02T22:17:25.641Z,29.50
2023-04-02T22:19:54.273Z,34.80
2023-04-02T22:22:22.964Z,29.30
2023-04-02T22:24:51.646Z,33.80
2023-04-02T22:27:20.358Z,32.00
2023-04-02T22:29:49.058Z,32.90
2023-04-02T22:32:17.905Z,33.50
2023-04-02T22:34:46.701Z,28.80
2023-04-02T22:37:15.170Z,29.00
2023-04-02T22:39:43.841Z,28.20
2023-04-02T22:42:12.246Z,27.40
2023-04-02T22:44:40.824Z,33.20
2023-04-02T22:47:09.325Z,28.30
2023-04-02T22:49:38.457Z,32.00
2023-04-02T22:52:07.193Z,29.20
2023-04-02T22:54:35.582Z,27.00
2023-04-02T22:57:04.385Z,32.20
2023-04-02T22:59:33.042Z,34.60
2023-04-02T23:02:01.831Z,29.80
2023-04-02T23:04:30.408Z,33.80
2023-04-02T23:06:58.892Z,32.90
2023-04-02T23:09:27.482Z,28.50
2023-04-02T23:11:55.853Z,30.70
2023-04-02T23:14:24.332Z,37.90
2023-04-02T23:16:53.027Z,37.40
2023-04-02T23:19:21.402Z,30.70
2023-04-02T23:21:50.032Z,40.00
2023-04-02T23:24:18.560Z,39.00
2023-04-02T23:26:47.986Z,38.40
2023-04-02T23:29:17.885Z,30.90
2023-04-02T23:31:46.281Z,34.20
2023-04-02T23:34:15.067Z,31.60
2023-04-02T23:36:43.431Z,31.70
2023-04-02T23:39:13.547Z,37.10
2023-04-02T23:41:43.260Z,35.20
2023-04-02T23:44:12.142Z,36.50
2023-04-02T23:46:40.554Z,36.20
2023-04-02T23:49:12.784Z,38.70
2023-04-02T23:51:41.803Z,39.60
2023-04-02T23:54:12.426Z,35.90
2023-04-02T23:56:42.215Z,33.80
2023-04-02T23:59:10.817Z,36.70
